Nazare do Piaui, Brazil
Current Conditions -  °F | °C
As of 12:00 AM on Monday 20 Oct 2014 (Local Time) from SBTE Reporting Station
Clear Clear  
Wind Chill: 86°   Ceiling: Unl
Heat Index: 92°   Visibility: 6mi
Dew Point: 72°   Wind: 9mph
Humidity: 62%   Direction: 330°NNW
Pressure: 29.83"   Gusts: NA
Location:  6.97°S, 42.67°W
Report Text: SBTE 200300Z 33008KT CAVOK 30/22 Q1010
Loading
Personal Weather Stations






























Interactive Weather Map
Tropical Storm Tracking
New forecast layout! Learn more

10-Day Weather Forecast

Advertisements
Track Severe Weather on mobile